Time;durP1;ratioP1;P1;durP2;ratioP2;P2;SDS_P1;SDS_P2;PMS_P1;PMS_P2;Temp;Humidity;BMP_temperature;BMP_pressure;BME280_temperature;BME280_humidity;BME280_pressure;Samples;Min_cycle;Max_cycle;Signal;HPM_P1;HPM_P2
2022/07/19 00:01:06;;;;;;;5.20;4.70;;;19.50;92.70;;;20.27;58.54;98328.03;5137680;28;20228;-53
2022/07/19 00:03:42;;;;;;;5.18;4.57;;;19.40;93.00;;;20.24;58.61;98331.44;5142258;28;20660;-55
2022/07/19 00:06:15;;;;;;;5.18;4.88;;;19.40;92.90;;;20.19;59.25;98334.75;5137902;28;20208;-51
2022/07/19 00:08:48;;;;;;;5.45;5.05;;;19.40;93.00;;;20.21;58.11;98336.53;5136376;28;20731;-52
2022/07/19 00:11:21;;;;;;;5.47;4.97;;;19.40;92.40;;;20.14;57.82;98336.34;5144420;28;20220;-55
2022/07/19 00:13:54;;;;;;;5.25;4.85;;;19.30;92.40;;;20.05;58.02;98334.38;5136883;28;20656;-55
2022/07/19 00:16:28;;;;;;;5.30;4.80;;;19.10;92.60;;;19.94;58.31;98333.19;5138447;28;20214;-59
2022/07/19 00:19:03;;;;;;;4.70;4.40;;;19.00;92.70;;;19.90;58.45;98339.16;5138688;28;20268;-52
2022/07/19 00:21:36;;;;;;;5.05;4.65;;;18.90;93.10;;;19.78;59.85;98335.38;5139137;28;20726;-55
2022/07/19 00:24:09;;;;;;;5.07;4.75;;;18.90;93.70;;;19.78;59.69;98331.91;5140704;28;20200;-54
2022/07/19 00:26:42;;;;;;;4.57;4.18;;;19.00;93.80;;;19.79;59.25;98334.53;5137694;28;20842;-51
2022/07/19 00:29:15;;;;;;;5.55;5.05;;;18.90;93.40;;;19.78;59.64;98332.78;5140734;28;20266;-56
2022/07/19 00:31:48;;;;;;;5.43;4.93;;;19.00;93.50;;;19.81;59.51;98334.59;5140224;28;20223;-53
2022/07/19 00:34:23;;;;;;;4.85;4.55;;;19.00;93.30;;;19.76;58.83;98333.56;5138903;28;20231;-53
2022/07/19 00:36:56;;;;;;;5.30;4.90;;;18.90;93.10;;;19.75;59.41;98334.41;5141860;28;20227;-59
2022/07/19 00:39:29;;;;;;;4.63;4.32;;;18.90;93.60;;;19.71;60.03;98337.72;5141274;28;20704;-55
2022/07/19 00:42:03;;;;;;;4.65;4.25;;;18.90;93.80;;;19.65;60.07;98346.22;5139971;28;20293;-56
2022/07/19 00:44:36;;;;;;;4.88;4.57;;;18.80;93.80;;;19.66;60.20;98344.50;5142386;28;20206;-57
2022/07/19 00:47:09;;;;;;;4.95;4.57;;;18.80;94.30;;;19.60;60.01;98329.59;5142202;28;20226;-56
2022/07/19 00:49:44;;;;;;;4.75;4.40;;;18.70;94.30;;;19.57;60.20;98340.78;5135913;28;20196;-56
2022/07/19 00:52:20;;;;;;;5.20;4.80;;;18.60;94.40;;;19.43;61.22;98336.91;5139816;28;20226;-54
2022/07/19 00:54:54;;;;;;;5.30;4.80;;;18.50;94.80;;;19.39;60.91;98329.88;5136510;28;20250;-59
2022/07/19 00:57:28;;;;;;;5.03;4.63;;;18.50;94.70;;;19.31;61.43;98327.03;5141300;28;20270;-55
2022/07/19 01:00:02;;;;;;;4.70;4.40;;;18.50;95.10;;;19.36;61.48;98324.59;5141024;28;20267;-59
2022/07/19 01:02:37;;;;;;;4.63;4.05;;;18.50;95.10;;;19.37;61.01;98326.34;5140921;28;20273;-57
2022/07/19 01:05:12;;;;;;;5.00;4.50;;;18.60;94.60;;;19.37;60.30;98323.75;5138062;28;20199;-59
2022/07/19 01:07:46;;;;;;;5.30;5.00;;;18.50;94.20;;;19.36;60.57;98317.69;5141408;28;20262;-56
2022/07/19 01:10:19;;;;;;;4.82;4.43;;;18.50;94.60;;;19.27;60.15;98319.13;5141505;28;20200;-58
2022/07/19 01:12:53;;;;;;;5.63;5.22;;;18.50;94.20;;;19.18;60.57;98319.75;5137679;28;20227;-56
2022/07/19 01:15:27;;;;;;;5.20;4.85;;;18.30;94.40;;;19.13;60.74;98321.31;5142197;28;20258;-60
2022/07/19 01:18:00;;;;;;;5.00;4.60;;;18.30;94.40;;;19.15;60.83;98324.84;5138426;28;20282;-52
2022/07/19 01:20:35;;;;;;;4.80;4.50;;;18.30;94.60;;;19.17;60.88;98317.97;5139870;28;20294;-56
2022/07/19 01:23:10;;;;;;;4.80;4.50;;;18.40;94.60;;;19.28;60.25;98319.16;5136179;28;20677;-55
2022/07/19 01:25:43;;;;;;;4.97;4.57;;;18.40;94.30;;;19.25;59.81;98321.66;5137121;28;20246;-56
2022/07/19 01:28:17;;;;;;;7.43;4.47;;;18.40;94.20;;;19.28;60.40;98316.56;5142224;28;20235;-53
2022/07/19 01:30:50;;;;;;;4.88;4.47;;;18.40;94.40;;;19.24;60.57;98314.75;5141177;28;20247;-52
2022/07/19 01:33:23;;;;;;;4.63;4.32;;;18.40;94.50;;;19.21;60.66;98314.66;5141227;28;20942;-55
2022/07/19 01:35:57;;;;;;;5.03;4.63;;;18.30;94.70;;;19.11;60.95;98322.97;5137526;28;20727;-53
2022/07/19 01:38:31;;;;;;;5.20;4.70;;;18.20;95.00;;;19.04;61.23;98316.72;5139890;28;20275;-56
2022/07/19 01:41:05;;;;;;;4.82;4.50;;;18.10;95.20;;;18.95;61.49;98318.16;5141637;28;20307;-54
2022/07/19 01:43:39;;;;;;;5.25;4.72;;;18.00;95.60;;;18.87;62.06;98316.19;5138708;28;20203;-54
2022/07/19 01:46:12;;;;;;;5.30;4.90;;;18.00;95.80;;;18.83;62.64;98314.34;5141503;28;20232;-59
2022/07/19 01:48:45;;;;;;;5.40;5.00;;;17.90;96.10;;;18.78;62.37;98313.31;5139005;28;20196;-54
2022/07/19 01:51:18;;;;;;;5.57;5.05;;;17.90;96.00;;;18.74;62.54;98313.16;5140067;28;20243;-56
2022/07/19 01:53:53;;;;;;;4.82;4.43;;;17.90;95.90;;;18.69;63.09;98313.88;5141383;28;20259;-56
2022/07/19 01:56:26;;;;;;;5.72;5.22;;;17.80;96.30;;;18.63;62.55;98312.78;5138929;28;20199;-53
2022/07/19 01:58:59;;;;;;;4.97;4.68;;;17.80;96.10;;;18.61;62.57;98306.69;5141114;28;22098;-60
2022/07/19 02:01:32;;;;;;;5.78;5.28;;;17.80;96.20;;;18.63;62.92;98305.03;5139846;28;20319;-52
2022/07/19 02:04:06;;;;;;;5.05;4.65;;;17.80;96.10;;;18.57;62.54;98304.81;5140622;28;20200;-54
2022/07/19 02:06:39;;;;;;;5.28;4.88;;;17.80;95.90;;;18.68;62.26;98301.75;5141869;28;20204;-52
2022/07/19 02:09:13;;;;;;;5.53;5.13;;;17.80;95.90;;;18.67;62.79;98305.16;5141910;28;20208;-57
2022/07/19 02:11:47;;;;;;;5.80;5.03;;;17.90;95.60;;;18.69;62.35;98302.63;5143477;28;20227;-56
2022/07/19 02:14:20;;;;;;;4.72;4.43;;;17.80;95.60;;;18.63;62.57;98297.25;5146362;28;20235;-56
2022/07/19 02:16:53;;;;;;;5.35;4.93;;;17.80;96.10;;;18.62;62.69;98305.84;5142295;28;20231;-56
2022/07/19 02:19:26;;;;;;;5.00;4.60;;;17.80;96.00;;;18.57;62.89;98297.03;5144818;28;20311;-57
2022/07/19 02:21:59;;;;;;;4.78;4.38;;;17.80;96.10;;;18.59;62.26;98295.38;5144946;28;20282;-53
2022/07/19 02:24:34;;;;;;;5.40;4.93;;;17.70;96.10;;;18.54;63.23;98303.03;5145859;28;20231;-56
2022/07/19 02:27:07;;;;;;;5.28;4.82;;;17.70;96.40;;;18.43;63.17;98299.19;5142549;28;20295;-53
2022/07/19 02:29:40;;;;;;;5.28;4.88;;;17.60;96.80;;;18.35;63.39;98301.53;5145093;28;20283;-57
2022/07/19 02:32:13;;;;;;;4.90;4.53;;;17.40;96.90;;;18.23;64.35;98298.53;5137785;28;20216;-55
2022/07/19 02:34:47;;;;;;;5.70;5.20;;;17.30;97.40;;;18.19;64.40;98304.41;5142561;28;20214;-54
2022/07/19 02:37:20;;;;;;;5.68;5.32;;;17.30;97.50;;;18.17;64.86;98295.69;5144957;28;20554;-52
2022/07/19 02:39:54;;;;;;;5.22;4.72;;;17.30;97.70;;;18.06;64.89;98300.53;5143704;28;20278;-51
2022/07/19 02:42:27;;;;;;;5.38;4.97;;;17.20;97.60;;;18.05;65.21;98297.88;5144415;28;20317;-56
2022/07/19 02:45:01;;;;;;;5.25;4.85;;;17.10;97.90;;;17.99;64.63;98298.53;5143311;28;20224;-51
2022/07/19 02:47:34;;;;;;;5.00;4.70;;;17.10;98.00;;;17.98;64.57;98294.22;5140646;28;20208;-52
2022/07/19 02:50:09;;;;;;;5.05;4.70;;;17.10;97.80;;;17.97;64.56;98290.75;5138732;28;20543;-52
2022/07/19 02:52:42;;;;;;;5.63;5.13;;;17.10;98.00;;;17.98;65.75;98299.38;5143242;28;20255;-53
2022/07/19 02:55:16;;;;;;;5.55;5.15;;;17.10;98.40;;;17.91;65.30;98303.47;5147818;28;20580;-59
2022/07/19 02:57:49;;;;;;;5.53;5.03;;;17.10;98.10;;;17.87;65.91;98299.00;5147219;28;20227;-55
2022/07/19 03:00:23;;;;;;;4.93;4.53;;;17.00;98.40;;;17.82;65.96;98299.66;5143931;28;20655;-51
2022/07/19 03:03:43;;;;;;;5.20;4.80;;;17.00;98.80;;;17.84;65.65;98305.78;5142723;28;20223;-54
2022/07/19 03:05:50;;;;;;;5.03;4.63;;;16.90;98.40;;;17.78;64.82;98302.13;5141445;28;20242;-53
2022/07/19 03:08:23;;;;;;;4.80;4.50;;;16.80;98.30;;;17.75;64.82;98298.53;5143204;28;20273;-51
2022/07/19 03:10:58;;;;;;;5.13;4.68;;;16.80;98.30;;;17.62;65.06;98296.31;5144449;28;20691;-54
2022/07/19 03:13:31;;;;;;;5.30;4.90;;;16.60;98.40;;;17.59;65.57;98299.66;5141972;28;20668;-55
2022/07/19 03:16:05;;;;;;;7.50;4.75;;;16.60;98.60;;;17.52;65.97;98290.81;5139753;28;20208;-55
2022/07/19 03:18:38;;;;;;;5.05;4.75;;;16.60;98.70;;;17.49;65.61;98288.13;5141567;28;20287;-55
2022/07/19 03:21:11;;;;;;;4.95;4.65;;;16.60;98.90;;;17.40;66.91;98282.63;5133955;28;20699;-54
2022/07/19 03:23:45;;;;;;;5.53;5.13;;;16.50;99.30;;;17.44;66.99;98278.44;5139057;28;20212;-59
2022/07/19 03:26:19;;;;;;;5.63;5.30;;;16.70;99.30;;;17.46;66.33;98284.56;5144073;28;20228;-52
2022/07/19 03:28:53;;;;;;;5.88;5.38;;;16.70;98.60;;;17.48;66.37;98281.22;5142801;28;20266;-56
2022/07/19 03:31:26;;;;;;;5.65;5.15;;;16.70;98.50;;;17.46;65.58;98284.56;5140155;28;20243;-52
2022/07/19 03:33:59;;;;;;;5.93;5.43;;;16.60;98.40;;;17.42;65.50;98283.53;5141012;28;20203;-57
2022/07/19 03:36:33;;;;;;;5.55;5.15;;;16.60;98.40;;;17.35;65.78;98284.16;5143310;28;20208;-55
2022/07/19 03:39:06;;;;;;;5.38;5.00;;;16.50;98.50;;;17.37;66.16;98290.28;5141615;28;20204;-60
2022/07/19 03:41:41;;;;;;;5.85;5.35;;;16.60;99.00;;;17.44;66.49;98289.66;5143163;28;20762;-55
2022/07/19 03:44:14;;;;;;;5.65;5.30;;;16.70;99.10;;;17.46;66.27;98294.91;5139286;28;20228;-56
2022/07/19 03:46:47;;;;;;;5.65;5.25;;;16.70;98.80;;;17.47;66.37;98284.59;5134009;28;20216;-53
2022/07/19 03:49:20;;;;;;;5.90;5.40;;;16.60;98.90;;;17.47;65.31;98287.19;5135832;28;20243;-54
2022/07/19 03:51:54;;;;;;;5.50;5.00;;;16.60;98.60;;;17.46;65.15;98289.72;5133369;28;20255;-58
2022/07/19 03:54:27;;;;;;;5.40;5.00;;;16.60;98.40;;;17.34;65.64;98292.75;5134406;28;20240;-55
2022/07/19 03:57:01;;;;;;;6.30;5.78;;;16.50;98.70;;;17.30;66.24;98301.19;5134103;28;20905;-53
2022/07/19 03:59:34;;;;;;;6.20;5.13;;;16.50;98.90;;;17.28;66.39;98298.56;5136514;28;20203;-56
2022/07/19 04:02:09;;;;;;;6.32;5.72;;;16.40;99.10;;;17.23;66.90;98294.03;5135532;28;20360;-54
2022/07/19 04:04:42;;;;;;;5.85;5.45;;;16.40;99.30;;;17.24;66.84;98295.78;5141324;28;20235;-53
2022/07/19 04:07:15;;;;;;;6.40;5.85;;;16.40;99.60;;;17.21;66.70;98291.38;5133506;28;20559;-58
2022/07/19 04:09:49;;;;;;;6.80;6.18;;;16.40;99.70;;;17.19;66.89;98292.16;5135141;28;20196;-52
2022/07/19 04:12:23;;;;;;;5.53;5.22;;;16.30;99.60;;;17.12;67.13;98293.63;5131546;28;20697;-56
2022/07/19 04:14:56;;;;;;;5.85;5.38;;;16.30;99.60;;;17.11;67.15;98291.84;5138970;28;20254;-56
2022/07/19 04:17:30;;;;;;;6.05;5.60;;;16.40;99.70;;;17.16;66.91;98287.75;5139933;28;20262;-55
2022/07/19 04:20:04;;;;;;;6.13;5.68;;;16.30;99.70;;;17.14;66.98;98288.50;5137489;28;20647;-54
2022/07/19 04:22:37;;;;;;;6.38;5.18;;;16.40;99.70;;;17.16;67.38;98289.44;5133432;28;20302;-57
2022/07/19 04:25:10;;;;;;;7.03;5.85;;;16.40;99.70;;;17.25;67.05;98294.97;5135316;28;20227;-53
2022/07/19 04:27:47;;;;;;;6.72;6.13;;;16.50;99.70;;;17.30;67.17;98301.19;5137978;28;20246;-52
2022/07/19 04:30:20;;;;;;;6.10;5.70;;;16.50;99.50;;;17.38;66.96;98307.53;5139868;28;20203;-52
2022/07/19 04:32:53;;;;;;;6.00;5.60;;;16.60;99.50;;;17.44;67.36;98300.00;5132781;28;20224;-56
2022/07/19 04:35:27;;;;;;;6.32;5.80;;;16.70;99.70;;;17.49;65.90;98308.81;5134712;28;20211;-54
2022/07/19 04:38:00;;;;;;;6.15;5.63;;;16.80;98.90;;;17.54;66.44;98306.38;5133058;28;20209;-51
2022/07/19 04:40:33;;;;;;;5.72;5.32;;;16.80;99.10;;;17.62;66.16;98311.84;5132312;28;20220;-59
2022/07/19 04:43:08;;;;;;;5.60;5.20;;;16.90;99.20;;;17.72;65.95;98308.78;5135639;28;20223;-52
2022/07/19 04:45:41;;;;;;;5.88;5.40;;;17.00;98.80;;;17.80;65.34;98309.97;5135579;28;20207;-57
2022/07/19 04:48:15;;;;;;;6.35;5.75;;;17.10;98.90;;;17.84;65.30;98314.41;5140712;28;20196;-55
2022/07/19 04:50:48;;;;;;;6.53;5.65;;;17.10;98.60;;;17.79;65.76;98306.47;5133254;28;20283;-55
2022/07/19 04:53:21;;;;;;;5.57;5.07;;;17.10;98.80;;;17.99;65.88;98309.75;5137085;28;20255;-52
2022/07/19 04:55:54;;;;;;;6.07;5.47;;;17.30;98.50;;;18.13;64.69;98304.19;5135276;28;20207;-51
2022/07/19 04:58:29;;;;;;;5.63;5.13;;;17.40;98.10;;;18.30;64.94;98303.06;5137586;28;20200;-53
2022/07/19 05:01:02;;;;;;;5.60;5.20;;;17.50;98.10;;;18.45;63.81;98300.97;5140221;28;20290;-63
2022/07/19 05:03:35;;;;;;;5.43;4.95;;;17.70;97.70;;;18.64;62.51;98299.00;5138138;28;20255;-55
2022/07/19 05:06:08;;;;;;;5.00;4.60;;;17.90;96.80;;;18.90;62.02;98298.16;5136368;28;20247;-53
2022/07/19 05:08:42;;;;;;;4.88;4.47;;;18.10;96.40;;;19.16;61.53;98305.84;5128932;28;21031;-57
2022/07/19 05:11:15;;;;;;;5.20;4.70;;;18.30;96.50;;;19.53;60.55;98297.44;5133475;28;20219;-56
2022/07/19 05:13:50;;;;;;;5.07;4.68;;;18.60;96.00;;;19.83;59.25;98296.59;5135302;28;20236;-57
2022/07/19 05:16:23;;;;;;;5.50;5.10;;;18.90;95.10;;;20.11;58.19;98293.00;5131907;28;20204;-52
2022/07/19 05:18:56;;;;;;;5.57;5.10;;;19.10;94.30;;;20.29;57.42;98294.31;5137281;28;20258;-59
2022/07/19 05:21:29;;;;;;;5.10;4.75;;;19.30;93.90;;;20.47;56.85;98294.78;5137631;28;20294;-52
2022/07/19 05:24:04;;;;;;;5.75;5.35;;;19.50;93.60;;;20.73;56.14;98289.41;5131453;28;20200;-58
2022/07/19 05:26:37;;;;;;;5.40;5.00;;;19.60;93.30;;;21.14;54.50;98293.81;5134987;28;20558;-54
2022/07/19 05:29:12;;;;;;;4.97;4.45;;;20.20;92.00;;;22.01;53.13;98292.16;5125030;28;20251;-52
2022/07/19 05:31:45;;;;;;;5.25;4.75;;;20.90;91.00;;;22.76;50.53;98291.72;5128498;28;20268;-54
2022/07/19 05:34:19;;;;;;;5.07;4.60;;;21.60;89.20;;;23.27;49.34;98289.03;5139093;28;20246;-53
2022/07/19 05:36:52;;;;;;;4.78;4.40;;;22.20;87.60;;;23.78;47.59;98292.31;5128323;28;20240;-54
2022/07/19 05:39:25;;;;;;;7.25;4.85;;;22.60;85.40;;;24.28;46.26;98289.34;5136641;28;20585;-52
2022/07/19 05:41:58;;;;;;;4.80;4.40;;;22.80;84.90;;;24.81;44.65;98285.44;5130342;28;20238;-54
2022/07/19 05:44:33;;;;;;;4.97;4.50;;;23.20;81.60;;;25.23;43.69;98286.63;5134800;28;20500;-57
2022/07/19 05:47:06;;;;;;;4.90;4.28;;;23.60;81.20;;;25.38;43.15;98282.38;5135048;28;20640;-59
2022/07/19 05:49:39;;;;;;;4.78;4.38;;;23.90;79.80;;;25.80;42.66;98283.41;5136554;28;20235;-55
2022/07/19 05:52:12;;;;;;;4.65;4.30;;;24.00;80.20;;;25.59;43.73;98286.81;5135967;28;20276;-61
2022/07/19 05:54:45;;;;;;;4.50;4.20;;;24.20;80.30;;;26.06;42.51;98285.25;5141530;28;20204;-58
2022/07/19 05:57:19;;;;;;;4.90;4.50;;;24.30;78.50;;;26.50;40.87;98287.97;5137137;28;20209;-62
2022/07/19 05:59:53;;;;;;;4.47;4.18;;;24.60;77.50;;;26.89;39.85;98283.56;5135880;28;20914;-56
2022/07/19 06:02:26;;;;;;;4.72;4.30;;;24.90;76.00;;;26.98;39.73;98287.91;5136966;28;20227;-60
2022/07/19 06:04:59;;;;;;;4.65;4.25;;;24.90;76.10;;;27.00;39.35;98280.06;5136395;28;20361;-57
2022/07/19 06:07:33;;;;;;;4.50;3.67;;;24.80;75.50;;;27.31;39.20;98284.41;5137633;28;20223;-53
2022/07/19 06:10:08;;;;;;;4.72;3.70;;;24.90;76.20;;;27.43;39.61;98285.22;5136996;28;20653;-57
2022/07/19 06:12:41;;;;;;;4.90;3.95;;;25.10;76.70;;;27.84;38.82;98288.59;5137240;28;20265;-54
2022/07/19 06:15:15;;;;;;;4.40;4.00;;;25.40;75.70;;;28.20;38.09;98276.09;5133293;28;20549;-57
2022/07/19 06:17:48;;;;;;;4.20;3.85;;;25.70;75.10;;;28.41;37.84;98279.47;5136438;28;20621;-57
2022/07/19 06:20:21;;;;;;;3.97;3.67;;;25.90;74.10;;;28.68;37.34;98276.66;5137328;28;20203;-55
2022/07/19 06:22:55;;;;;;;4.32;3.92;;;26.10;74.30;;;28.77;36.92;98280.09;5142988;28;20227;-57
2022/07/19 06:25:28;;;;;;;3.88;3.58;;;26.10;74.30;;;29.05;36.51;98273.72;5135159;28;20578;-56
2022/07/19 06:28:01;;;;;;;4.40;4.00;;;26.30;73.50;;;29.34;35.63;98277.78;5142045;28;20212;-57
2022/07/19 06:30:36;;;;;;;4.43;4.00;;;26.50;71.10;;;29.55;35.39;98272.25;5137556;28;20727;-57
2022/07/19 06:33:09;;;;;;;5.18;4.10;;;26.60;72.30;;;29.69;35.00;98268.59;5133873;28;20226;-57
2022/07/19 06:35:42;;;;;;;7.10;4.05;;;26.80;71.60;;;30.19;34.22;98278.47;5135876;28;20552;-57
2022/07/19 06:38:16;;;;;;;4.95;3.97;;;27.20;70.60;;;30.57;33.89;98270.88;5136499;28;21139;-56
2022/07/19 06:40:49;;;;;;;4.15;3.78;;;27.60;69.90;;;30.64;33.34;98272.50;5134869;28;20857;-60
2022/07/19 06:43:22;;;;;;;4.38;3.50;;;27.80;68.40;;;30.73;33.52;98267.94;5137310;28;20222;-57
2022/07/19 06:45:57;;;;;;;5.05;3.90;;;28.00;68.60;;;31.11;33.44;98261.13;5137158;28;20195;-58
2022/07/19 06:48:30;;;;;;;4.10;3.80;;;28.20;69.20;;;31.28;33.52;98265.19;5135791;28;20257;-60
2022/07/19 06:51:05;;;;;;;4.10;3.67;;;28.60;68.50;;;31.36;33.17;98264.19;5135599;28;21464;-58
2022/07/19 06:53:38;;;;;;;4.10;3.70;;;28.70;68.60;;;31.75;31.87;98266.91;5142902;28;20199;-59
2022/07/19 06:56:11;;;;;;;3.67;3.38;;;29.00;65.80;;;32.04;31.94;98268.06;5134542;28;20283;-61
2022/07/19 06:58:44;;;;;;;3.78;3.47;;;29.30;66.40;;;31.99;32.00;98267.28;5135380;28;20204;-57
2022/07/19 07:01:19;;;;;;;4.57;3.85;;;29.60;65.90;;;32.42;31.93;98263.63;5136623;28;20220;-55
2022/07/19 07:03:52;;;;;;;3.95;3.65;;;29.90;65.70;;;32.90;30.78;98263.34;5134598;28;20223;-57
2022/07/19 07:06:25;;;;;;;4.43;3.67;;;30.30;64.50;;;33.09;31.37;98261.09;5135259;28;20230;-61
2022/07/19 07:08:59;;;;;;;3.55;3.25;;;30.50;64.20;;;33.49;30.63;98260.84;5134480;28;20291;-62
2022/07/19 07:11:32;;;;;;;4.00;3.60;;;30.90;63.40;;;33.35;29.95;98257.72;5134465;28;20689;-60
2022/07/19 07:14:06;;;;;;;3.63;3.28;;;30.70;62.10;;;33.62;30.28;98264.03;5135508;28;20196;-59
2022/07/19 07:16:40;;;;;;;4.43;3.35;;;30.80;63.50;;;34.00;29.41;98262.91;5135121;28;20222;-57
2022/07/19 07:19:13;;;;;;;4.93;3.78;;;31.40;62.60;;;34.27;29.19;98250.56;5134882;28;20659;-58
2022/07/19 07:21:47;;;;;;;4.55;3.42;;;31.60;61.90;;;34.04;29.80;98258.41;5135277;28;20299;-60
2022/07/19 07:24:20;;;;;;;4.53;3.38;;;31.70;61.30;;;34.53;28.55;98257.66;5140469;28;20587;-58
2022/07/19 07:26:53;;;;;;;3.90;3.22;;;32.00;60.00;;;34.42;27.37;98249.19;5136137;28;20207;-61
2022/07/19 07:29:26;;;;;;;2.88;2.58;;;32.10;58.50;;;34.67;27.27;98261.69;5137801;28;20231;-58
2022/07/19 07:32:00;;;;;;;3.22;2.72;;;32.20;58.10;;;34.59;26.63;98253.13;5134323;28;20680;-62
2022/07/19 07:34:34;;;;;;;3.22;2.90;;;32.30;56.50;;;34.90;25.99;98253.78;5134835;28;20571;-62
2022/07/19 07:37:09;;;;;;;5.78;3.20;;;32.30;57.40;;;35.09;27.10;98255.84;5134032;28;20195;-62
2022/07/19 07:39:42;;;;;;;3.50;3.20;;;32.70;58.00;;;35.44;26.89;98257.22;5133746;28;20207;-63
2022/07/19 07:42:15;;;;;;;2.95;2.60;;;32.80;58.30;;;35.38;25.47;98242.34;5133643;28;20261;-61
2022/07/19 07:44:48;;;;;;;3.13;2.92;;;33.10;55.90;;;35.46;25.50;98247.41;5134812;28;20672;-61
2022/07/19 07:47:23;;;;;;;2.95;2.75;;;33.20;55.60;;;35.97;25.31;98232.16;5134957;28;20495;-59
2022/07/19 07:49:56;;;;;;;2.90;2.60;;;33.40;55.40;;;35.99;24.95;98240.97;5136284;28;20206;-61
2022/07/19 07:52:29;;;;;;;4.47;2.72;;;33.70;54.90;;;35.92;24.96;98237.69;5124896;28;20219;-57
2022/07/19 07:55:03;;;;;;;2.70;2.47;;;33.60;55.50;;;36.29;23.92;98230.91;5134259;28;20200;-59
2022/07/19 07:57:56;;;;;;;3.08;2.40;;;33.90;53.50;;;36.69;23.12;98235.47;5134226;28;20206;-58
2022/07/19 08:00:29;;;;;;;3.22;2.65;;;34.30;53.40;;;36.48;23.64;98233.66;5134559;28;20615;-58
2022/07/19 08:03:04;;;;;;;3.00;2.42;;;34.30;53.20;;;36.67;22.99;98228.47;5146231;28;20227;-58
2022/07/19 08:05:39;;;;;;;2.90;2.35;;;34.50;52.20;;;37.12;22.83;98224.78;5134334;28;20210;-59
2022/07/19 08:08:12;;;;;;;5.00;2.38;;;34.60;51.80;;;37.35;23.09;98226.41;5130797;28;20218;-58
2022/07/19 08:10:45;;;;;;;3.22;2.40;;;34.60;52.40;;;37.37;21.57;98230.72;5127432;28;20254;-58
2022/07/19 08:13:19;;;;;;;4.53;2.45;;;34.90;50.10;;;36.94;22.27;98221.06;5128608;28;20227;-59
2022/07/19 08:15:52;;;;;;;2.67;2.20;;;34.80;50.60;;;36.59;20.92;98211.94;5141006;28;20513;-59
2022/07/19 08:18:26;;;;;;;3.42;2.20;;;34.50;49.00;;;36.31;21.14;98219.28;5142176;28;20204;-60
2022/07/19 08:21:00;;;;;;;2.20;1.90;;;34.70;48.90;;;36.25;20.93;98208.84;5144652;28;21626;-56
2022/07/19 08:23:33;;;;;;;3.42;2.00;;;34.50;48.30;;;36.51;20.45;98215.75;5130993;28;20275;-60
2022/07/19 08:26:06;;;;;;;3.15;1.90;;;34.90;47.60;;;36.45;20.86;98215.16;5141533;28;20196;-56
2022/07/19 08:28:39;;;;;;;2.97;1.80;;;35.10;47.30;;;36.12;18.52;98218.28;5138701;28;20618;-56
2022/07/19 08:31:13;;;;;;;4.95;2.13;;;34.90;44.30;;;35.44;19.84;98222.66;5131287;28;20242;-58
2022/07/19 08:33:47;;;;;;;2.25;1.70;;;34.30;45.50;;;35.63;19.84;98217.53;5130494;28;20196;-57
2022/07/19 08:36:20;;;;;;;3.50;2.42;;;34.50;45.60;;;35.42;19.63;98214.72;5130098;28;20207;-58
2022/07/19 08:38:53;;;;;;;2.30;2.03;;;34.30;45.10;;;34.90;19.86;98218.38;5130003;28;20656;-60
2022/07/19 08:41:27;;;;;;;3.75;2.30;;;34.00;44.80;;;34.64;21.21;98208.69;5134422;28;20730;-55
2022/07/19 08:44:03;;;;;;;2.53;2.17;;;33.90;46.20;;;34.97;19.74;98212.81;5135013;28;20208;-57
2022/07/19 08:46:36;;;;;;;2.47;2.10;;;34.10;44.80;;;35.12;20.08;98213.22;5135800;28;20199;-60
2022/07/19 08:49:11;;;;;;;3.45;2.30;;;34.40;45.10;;;35.19;20.07;98212.06;5137886;28;20196;-59
2022/07/19 08:51:48;;;;;;;3.63;2.40;;;34.40;44.90;;;35.23;20.79;98218.13;5133915;28;20758;-59
2022/07/19 08:54:21;;;;;;;2.40;2.20;;;34.50;45.50;;;35.50;19.96;98216.22;5137506;28;20195;-57
2022/07/19 08:59:45;;;;;;;2.85;2.25;;;34.90;44.60;;;35.81;19.43;98222.13;5134077;28;20207;-55
2022/07/19 09:02:21;;;;;;;4.10;2.45;;;35.10;44.20;;;35.73;19.60;98224.22;5135124;28;20596;-54
2022/07/19 09:05:05;;;;;;;3.38;3.08;;;34.90;44.40;;;35.80;19.56;98217.75;5141952;28;20238;-56
2022/07/19 09:07:39;;;;;;;3.88;2.63;;;34.90;44.20;;;34.94;19.81;98220.91;5136390;28;20624;-60
2022/07/19 09:10:17;;;;;;;3.00;2.70;;;34.30;44.40;;;34.80;20.61;98217.84;5135490;28;20203;-57
2022/07/19 09:13:02;;;;;;;3.97;2.50;;;34.00;45.60;;;34.66;20.81;98230.75;5122907;28;20257;-62
2022/07/19 09:15:44;;;;;;;2.65;2.42;;;34.10;44.80;;;34.71;20.57;98211.06;5134802;28;20800;-62
2022/07/19 09:18:20;;;;;;;4.68;2.80;;;34.20;45.10;;;34.96;20.66;98219.03;5138588;28;20641;-57
2022/07/19 09:20:58;;;;;;;3.00;2.70;;;34.30;45.10;;;35.01;20.13;98223.31;5135575;28;20214;-57
2022/07/19 09:23:32;;;;;;;3.58;2.58;;;34.40;44.40;;;35.03;20.06;98218.81;5136643;28;20620;-59
2022/07/19 09:26:06;;;;;;;3.60;2.70;;;34.30;44.00;;;34.43;20.82;98219.09;5143620;28;20211;-57
2022/07/19 09:28:39;;;;;;;3.55;2.80;;;33.80;44.80;;;34.17;20.86;98225.25;5146189;28;20202;-58
2022/07/19 09:31:13;;;;;;;3.08;2.78;;;33.50;44.90;;;34.15;19.96;98218.25;5132673;28;20383;-58
2022/07/19 09:33:53;;;;;;;3.10;2.80;;;33.50;44.40;;;33.91;20.67;98219.84;5135603;28;20199;-57
2022/07/19 09:36:28;;;;;;;3.10;2.90;;;33.40;45.00;;;33.73;20.93;98216.84;5143954;28;20199;-55
2022/07/19 09:39:06;;;;;;;5.60;3.40;;;33.30;44.70;;;34.07;20.34;98232.63;5139936;28;20196;-56
2022/07/19 09:41:55;;;;;;;3.35;2.90;;;33.40;45.40;;;34.15;21.85;98218.25;5141113;28;20226;-59
2022/07/19 09:44:28;;;;;;;3.33;3.00;;;33.60;45.80;;;34.31;21.61;98230.09;5140060;28;20211;-57
2022/07/19 09:47:01;;;;;;;5.20;3.08;;;33.90;45.60;;;34.21;21.03;98218.91;5135112;28;20232;-55
2022/07/19 09:49:43;;;;;;;3.10;2.70;;;33.70;44.70;;;34.33;21.64;98225.59;5143372;28;20210;-60
2022/07/19 09:52:21;;;;;;;3.30;3.08;;;33.80;45.30;;;34.39;20.81;98220.09;5134485;28;20255;-58
2022/07/19 09:54:55;;;;;;;3.25;2.95;;;33.90;44.70;;;34.42;20.95;98225.28;5140514;28;20195;-58
2022/07/19 09:57:34;;;;;;;3.30;3.00;;;33.90;44.70;;;34.19;20.94;98214.56;5133410;28;20210;-58
2022/07/19 10:00:10;;;;;;;3.63;3.00;;;33.70;44.80;;;34.38;21.27;98207.75;5137670;28;20188;-59
2022/07/19 10:02:46;;;;;;;3.03;2.72;;;33.80;45.30;;;34.45;21.10;98198.63;5149058;28;20223;-59
2022/07/19 10:05:20;;;;;;;3.10;2.90;;;33.90;45.20;;;34.39;21.08;98200.63;5136869;28;20210;-59
2022/07/19 10:07:55;;;;;;;4.80;2.92;;;33.90;44.70;;;34.39;21.05;98206.81;5142116;28;20231;-58
2022/07/19 10:10:30;;;;;;;2.90;2.70;;;33.80;45.30;;;34.58;21.19;98206.22;5137412;28;20211;-57
2022/07/19 10:13:05;;;;;;;3.15;2.85;;;34.00;45.00;;;34.49;21.51;98196.75;5131358;28;20898;-59
2022/07/19 10:15:43;;;;;;;3.90;2.92;;;34.00;45.40;;;34.51;20.79;98195.78;5133451;28;20214;-56
2022/07/19 10:18:20;;;;;;;3.55;2.88;;;34.00;45.30;;;34.65;20.58;98197.13;5137262;28;20222;-60
2022/07/19 10:20:54;;;;;;;3.08;2.78;;;34.00;45.20;;;34.47;21.30;98188.84;5138445;28;20219;-54
2022/07/19 10:23:31;;;;;;;3.53;3.10;;;34.00;44.80;;;34.37;21.30;98197.16;5132246;28;20318;-60
2022/07/19 10:26:04;;;;;;;2.58;2.38;;;33.70;45.10;;;34.24;21.03;98180.78;5133920;28;20199;-53
2022/07/19 10:28:38;;;;;;;3.25;2.95;;;33.70;46.10;;;34.12;21.46;98186.50;5139167;28;20622;-57
2022/07/19 10:31:35;;;;;;;3.00;2.78;;;33.60;45.10;;;34.05;20.84;98183.16;5133611;28;20310;-58
2022/07/19 10:34:11;;;;;;;2.80;2.60;;;33.50;45.10;;;34.09;21.47;98175.06;5137888;28;20192;-58
2022/07/19 10:36:47;;;;;;;2.90;2.70;;;33.60;45.80;;;34.22;21.60;98172.84;5132853;28;20571;-56
2022/07/19 10:39:30;;;;;;;3.92;3.10;;;33.70;45.70;;;34.37;21.87;98174.16;5138967;28;20583;-55
2022/07/19 10:42:19;;;;;;;3.00;2.80;;;33.80;46.10;;;34.57;21.48;98183.22;5136685;28;20718;-58
2022/07/19 10:45:17;;;;;;;3.30;3.00;;;33.90;45.50;;;34.38;21.62;98178.53;5137591;28;20224;-59
2022/07/19 10:48:07;;;;;;;3.40;3.10;;;33.80;46.00;;;34.28;21.26;98169.13;5142418;28;20203;-63
2022/07/19 10:50:59;;;;;;;5.80;3.10;;;33.60;45.40;;;34.04;21.29;98162.88;5135101;28;20258;-59
2022/07/19 10:54:05;;;;;;;4.75;2.97;;;33.30;45.40;;;34.09;22.20;98164.44;5140348;28;20195;-58